sensor_id;sensor_type;location;lat;lon;timestamp;pressure;altitude;pressure_sealevel;temperature;humidity
63343;BME280;49465;57.664;39.686;2023-07-02T00:01:06;98424.06;;;19.12;55.03
63343;BME280;49465;57.664;39.686;2023-07-02T00:03:38;98420.63;;;19.18;55.17
63343;BME280;49465;57.664;39.686;2023-07-02T00:06:05;98422.59;;;18.96;56.03
63343;BME280;49465;57.664;39.686;2023-07-02T00:08:39;98422.03;;;19.07;55.95
63343;BME280;49465;57.664;39.686;2023-07-02T00:11:06;98414.19;;;18.92;55.89
63343;BME280;49465;57.664;39.686;2023-07-02T00:13:41;98421.16;;;18.93;56.08
63343;BME280;49465;57.664;39.686;2023-07-02T00:16:08;98420.50;;;18.91;55.91
63343;BME280;49465;57.664;39.686;2023-07-02T00:18:37;98418.06;;;18.90;55.89
63343;BME280;49465;57.664;39.686;2023-07-02T00:21:11;98416.66;;;19.01;56.73
63343;BME280;49465;57.664;39.686;2023-07-02T00:23:42;98422.59;;;19.03;56.31
63343;BME280;49465;57.664;39.686;2023-07-02T00:26:14;98428.16;;;19.08;56.24
63343;BME280;49465;57.664;39.686;2023-07-02T00:28:48;98430.34;;;18.98;55.71
63343;BME280;49465;57.664;39.686;2023-07-02T00:31:24;98421.34;;;18.99;56.31
63343;BME280;49465;57.664;39.686;2023-07-02T00:33:59;98427.09;;;19.02;55.26
63343;BME280;49465;57.664;39.686;2023-07-02T00:36:33;98429.94;;;18.94;55.31
63343;BME280;49465;57.664;39.686;2023-07-02T00:39:02;98437.84;;;18.87;56.15
63343;BME280;49465;57.664;39.686;2023-07-02T00:41:36;98426.31;;;18.73;56.02
63343;BME280;49465;57.664;39.686;2023-07-02T00:44:03;98429.19;;;18.72;56.14
63343;BME280;49465;57.664;39.686;2023-07-02T00:46:32;98435.50;;;18.71;55.80
63343;BME280;49465;57.664;39.686;2023-07-02T00:49:07;98436.66;;;18.90;56.31
63343;BME280;49465;57.664;39.686;2023-07-02T00:51:39;98451.91;;;18.81;56.59
63343;BME280;49465;57.664;39.686;2023-07-02T00:54:14;98449.63;;;18.78;57.17
63343;BME280;49465;57.664;39.686;2023-07-02T00:56:53;98438.88;;;18.86;56.74
63343;BME280;49465;57.664;39.686;2023-07-02T00:59:25;98434.91;;;18.75;57.31
63343;BME280;49465;57.664;39.686;2023-07-02T01:01:54;98434.84;;;18.62;57.18
63343;BME280;49465;57.664;39.686;2023-07-02T01:04:30;98438.63;;;18.81;57.32
63343;BME280;49465;57.664;39.686;2023-07-02T01:07:02;98436.13;;;18.73;57.10
63343;BME280;49465;57.664;39.686;2023-07-02T01:09:40;98442.25;;;18.73;57.17
63343;BME280;49465;57.664;39.686;2023-07-02T01:12:17;98437.38;;;18.77;57.00
63343;BME280;49465;57.664;39.686;2023-07-02T01:14:53;98444.00;;;18.88;56.25
63343;BME280;49465;57.664;39.686;2023-07-02T01:17:27;98449.25;;;18.81;55.95
63343;BME280;49465;57.664;39.686;2023-07-02T01:20:02;98444.50;;;18.76;55.88
63343;BME280;49465;57.664;39.686;2023-07-02T01:22:32;98453.66;;;18.67;55.92
63343;BME280;49465;57.664;39.686;2023-07-02T01:25:02;98454.69;;;18.66;56.13
63343;BME280;49465;57.664;39.686;2023-07-02T01:27:35;98451.59;;;18.63;56.83
63343;BME280;49465;57.664;39.686;2023-07-02T01:30:09;98450.44;;;18.72;56.84
63343;BME280;49465;57.664;39.686;2023-07-02T01:32:41;98453.63;;;18.61;57.43
63343;BME280;49465;57.664;39.686;2023-07-02T01:35:13;98457.09;;;18.61;57.43
63343;BME280;49465;57.664;39.686;2023-07-02T01:37:42;98460.75;;;18.60;57.49
63343;BME280;49465;57.664;39.686;2023-07-02T01:40:14;98460.13;;;18.58;57.59
63343;BME280;49465;57.664;39.686;2023-07-02T01:42:43;98464.59;;;18.57;57.07
63343;BME280;49465;57.664;39.686;2023-07-02T01:45:16;98468.91;;;18.58;57.66
63343;BME280;49465;57.664;39.686;2023-07-02T01:47:45;98460.88;;;18.45;56.96
63343;BME280;49465;57.664;39.686;2023-07-02T01:50:14;98464.59;;;18.57;57.93
63343;BME280;49465;57.664;39.686;2023-07-02T01:52:46;98466.97;;;18.46;57.67
63343;BME280;49465;57.664;39.686;2023-07-02T01:55:15;98464.59;;;18.57;57.69
63343;BME280;49465;57.664;39.686;2023-07-02T01:57:46;98465.63;;;18.56;57.87
63343;BME280;49465;57.664;39.686;2023-07-02T02:00:24;98461.59;;;18.61;58.07
63343;BME280;49465;57.664;39.686;2023-07-02T02:02:54;98462.75;;;18.51;58.00
63343;BME280;49465;57.664;39.686;2023-07-02T02:05:23;98462.31;;;18.48;58.11
63343;BME280;49465;57.664;39.686;2023-07-02T02:07:53;98452.78;;;18.60;58.83
63343;BME280;49465;57.664;39.686;2023-07-02T02:10:25;98466.88;;;18.61;58.12
63343;BME280;49465;57.664;39.686;2023-07-02T02:12:59;98480.16;;;18.61;58.59
63343;BME280;49465;57.664;39.686;2023-07-02T02:15:25;98482.13;;;18.52;59.15
63343;BME280;49465;57.664;39.686;2023-07-02T02:18:06;98475.63;;;18.54;59.22
63343;BME280;49465;57.664;39.686;2023-07-02T02:20:38;98470.34;;;18.61;59.58
63343;BME280;49465;57.664;39.686;2023-07-02T02:23:10;98476.91;;;18.65;59.83
63343;BME280;49465;57.664;39.686;2023-07-02T02:25:41;98482.78;;;18.89;60.63
63343;BME280;49465;57.664;39.686;2023-07-02T02:28:11;98482.97;;;18.87;59.76
63343;BME280;49465;57.664;39.686;2023-07-02T02:30:37;98483.78;;;18.81;60.36
63343;BME280;49465;57.664;39.686;2023-07-02T02:33:12;98475.00;;;18.87;60.47
63343;BME280;49465;57.664;39.686;2023-07-02T02:35:43;98471.81;;;18.99;60.73
63343;BME280;49465;57.664;39.686;2023-07-02T02:38:21;98474.22;;;19.35;59.95
63343;BME280;49465;57.664;39.686;2023-07-02T02:40:52;98476.84;;;19.28;61.24
63343;BME280;49465;57.664;39.686;2023-07-02T02:43:23;98481.13;;;20.11;54.92
63343;BME280;49465;57.664;39.686;2023-07-02T02:45:58;98469.19;;;19.60;59.74
63343;BME280;49465;57.664;39.686;2023-07-02T02:48:27;98476.13;;;19.61;61.00
63343;BME280;49465;57.664;39.686;2023-07-02T02:51:01;98485.78;;;19.75;60.70
63343;BME280;49465;57.664;39.686;2023-07-02T02:53:28;98477.78;;;19.69;60.65
63343;BME280;49465;57.664;39.686;2023-07-02T02:56:00;98489.69;;;19.80;60.72
63343;BME280;49465;57.664;39.686;2023-07-02T02:58:32;98483.16;;;19.89;60.82
63343;BME280;49465;57.664;39.686;2023-07-02T03:01:01;98493.59;;;20.10;60.65
63343;BME280;49465;57.664;39.686;2023-07-02T03:03:39;98486.03;;;20.21;61.28
63343;BME280;49465;57.664;39.686;2023-07-02T03:06:15;98485.84;;;20.35;59.82
63343;BME280;49465;57.664;39.686;2023-07-02T03:08:47;98484.00;;;20.43;60.88
63343;BME280;49465;57.664;39.686;2023-07-02T03:11:16;98482.72;;;20.52;60.86
63343;BME280;49465;57.664;39.686;2023-07-02T03:13:54;98485.63;;;20.64;60.66
63343;BME280;49465;57.664;39.686;2023-07-02T03:16:24;98489.69;;;20.73;60.36
63343;BME280;49465;57.664;39.686;2023-07-02T03:18:54;98493.78;;;20.82;60.20
63343;BME280;49465;57.664;39.686;2023-07-02T03:21:25;98497.03;;;20.98;59.95
63343;BME280;49465;57.664;39.686;2023-07-02T03:23:54;98499.69;;;20.98;60.17
63343;BME280;49465;57.664;39.686;2023-07-02T03:26:26;98505.81;;;21.05;60.54
63343;BME280;49465;57.664;39.686;2023-07-02T03:28:53;98501.91;;;21.07;60.14
63343;BME280;49465;57.664;39.686;2023-07-02T03:31:22;98497.81;;;21.11;59.89
63343;BME280;49465;57.664;39.686;2023-07-02T03:33:48;98504.13;;;21.17;59.78
63343;BME280;49465;57.664;39.686;2023-07-02T03:36:17;98490.38;;;21.27;59.66
63343;BME280;49465;57.664;39.686;2023-07-02T03:38:50;98500.16;;;21.46;59.70
63343;BME280;49465;57.664;39.686;2023-07-02T03:41:22;98493.78;;;21.41;59.23
63343;BME280;49465;57.664;39.686;2023-07-02T03:43:49;98500.97;;;21.47;59.30
63343;BME280;49465;57.664;39.686;2023-07-02T03:46:18;98500.09;;;21.53;59.20
63343;BME280;49465;57.664;39.686;2023-07-02T03:48:49;98503.56;;;21.60;58.88
63343;BME280;49465;57.664;39.686;2023-07-02T03:51:25;98506.88;;;21.87;58.07
63343;BME280;49465;57.664;39.686;2023-07-02T03:53:51;98510.50;;;21.68;58.62
63343;BME280;49465;57.664;39.686;2023-07-02T03:56:22;98511.25;;;21.82;58.20
63343;BME280;49465;57.664;39.686;2023-07-02T03:58:49;98498.75;;;21.76;58.24
63343;BME280;49465;57.664;39.686;2023-07-02T04:01:17;98510.63;;;21.80;58.23
63343;BME280;49465;57.664;39.686;2023-07-02T04:03:54;98509.25;;;22.02;58.06
63343;BME280;49465;57.664;39.686;2023-07-02T04:06:22;98508.13;;;21.85;58.25
63343;BME280;49465;57.664;39.686;2023-07-02T04:08:54;98509.06;;;21.97;58.06
63343;BME280;49465;57.664;39.686;2023-07-02T04:11:20;98508.72;;;21.87;58.61
63343;BME280;49465;57.664;39.686;2023-07-02T04:13:47;98513.44;;;21.91;57.92
63343;BME280;49465;57.664;39.686;2023-07-02T04:16:15;98518.59;;;21.86;58.68
63343;BME280;49465;57.664;39.686;2023-07-02T04:18:47;98518.16;;;21.89;58.17
63343;BME280;49465;57.664;39.686;2023-07-02T04:21:16;98525.44;;;22.07;58.16
63343;BME280;49465;57.664;39.686;2023-07-02T04:23:51;98529.72;;;22.08;58.93
63343;BME280;49465;57.664;39.686;2023-07-02T04:26:19;98532.28;;;21.97;58.55
63343;BME280;49465;57.664;39.686;2023-07-02T04:28:49;98533.00;;;22.10;58.50
63343;BME280;49465;57.664;39.686;2023-07-02T04:31:23;98535.44;;;22.12;58.73
63343;BME280;49465;57.664;39.686;2023-07-02T04:33:52;98531.78;;;22.06;58.77
63343;BME280;49465;57.664;39.686;2023-07-02T04:36:23;98530.06;;;22.19;58.56
63343;BME280;49465;57.664;39.686;2023-07-02T04:38:53;98528.25;;;22.12;58.24
63343;BME280;49465;57.664;39.686;2023-07-02T04:41:24;98533.97;;;22.16;58.31
63343;BME280;49465;57.664;39.686;2023-07-02T04:43:50;98533.19;;;22.16;57.93
63343;BME280;49465;57.664;39.686;2023-07-02T04:46:25;98529.63;;;22.22;57.82
63343;BME280;49465;57.664;39.686;2023-07-02T04:48:54;98534.94;;;22.28;57.73
63343;BME280;49465;57.664;39.686;2023-07-02T04:51:26;98535.94;;;22.34;58.36
63343;BME280;49465;57.664;39.686;2023-07-02T04:53:56;98539.66;;;22.33;57.93
63343;BME280;49465;57.664;39.686;2023-07-02T04:56:25;98537.72;;;22.40;57.62
63343;BME280;49465;57.664;39.686;2023-07-02T04:58:55;98545.19;;;22.31;58.03
63343;BME280;49465;57.664;39.686;2023-07-02T05:01:22;98546.41;;;22.36;58.17
63343;BME280;49465;57.664;39.686;2023-07-02T05:03:54;98556.09;;;22.55;57.67
63343;BME280;49465;57.664;39.686;2023-07-02T05:06:23;98541.06;;;22.61;57.23
63343;BME280;49465;57.664;39.686;2023-07-02T05:08:54;98553.59;;;22.60;57.47
63343;BME280;49465;57.664;39.686;2023-07-02T05:11:26;98549.88;;;22.61;57.25
63343;BME280;49465;57.664;39.686;2023-07-02T05:13:55;98555.28;;;22.55;57.70
63343;BME280;49465;57.664;39.686;2023-07-02T05:16:24;98548.28;;;22.54;57.77
63343;BME280;49465;57.664;39.686;2023-07-02T05:18:59;98559.06;;;22.90;56.75
63343;BME280;49465;57.664;39.686;2023-07-02T05:21:31;98555.63;;;22.83;56.72
63343;BME280;49465;57.664;39.686;2023-07-02T05:24:07;98558.63;;;22.94;56.71
63343;BME280;49465;57.664;39.686;2023-07-02T05:26:42;98564.09;;;23.05;56.41
63343;BME280;49465;57.664;39.686;2023-07-02T05:29:15;98568.84;;;23.03;56.63
63343;BME280;49465;57.664;39.686;2023-07-02T05:31:49;98571.66;;;23.08;57.14
63343;BME280;49465;57.664;39.686;2023-07-02T05:34:21;98569.66;;;23.22;56.04
63343;BME280;49465;57.664;39.686;2023-07-02T05:36:50;98564.91;;;23.06;56.60
63343;BME280;49465;57.664;39.686;2023-07-02T05:39:19;98574.03;;;23.17;55.94
63343;BME280;49465;57.664;39.686;2023-07-02T05:41:53;98571.44;;;23.28;56.22
63343;BME280;49465;57.664;39.686;2023-07-02T05:44:22;98579.03;;;23.32;55.90
63343;BME280;49465;57.664;39.686;2023-07-02T05:46:56;98572.25;;;23.66;55.45
63343;BME280;49465;57.664;39.686;2023-07-02T05:49:28;98569.03;;;23.57;55.52
63343;BME280;49465;57.664;39.686;2023-07-02T05:51:54;98571.88;;;23.62;55.19
63343;BME280;49465;57.664;39.686;2023-07-02T05:54:32;98571.16;;;23.85;54.54
63343;BME280;49465;57.664;39.686;2023-07-02T05:57:01;98573.31;;;23.77;55.45
63343;BME280;49465;57.664;39.686;2023-07-02T05:59:33;98575.31;;;24.00;54.87
63343;BME280;49465;57.664;39.686;2023-07-02T06:02:05;98571.16;;;24.16;54.72
63343;BME280;49465;57.664;39.686;2023-07-02T06:04:35;98576.59;;;24.39;54.50
63343;BME280;49465;57.664;39.686;2023-07-02T06:07:09;98584.53;;;24.58;53.98
63343;BME280;49465;57.664;39.686;2023-07-02T06:09:40;98585.25;;;24.65;53.61
63343;BME280;49465;57.664;39.686;2023-07-02T06:12:09;98579.91;;;24.89;53.16
63343;BME280;49465;57.664;39.686;2023-07-02T06:14:41;98579.69;;;25.02;53.14
63343;BME280;49465;57.664;39.686;2023-07-02T06:17:08;98578.03;;;25.01;52.58
63343;BME280;49465;57.664;39.686;2023-07-02T06:19:40;98578.50;;;25.21;52.31
63343;BME280;49465;57.664;39.686;2023-07-02T06:22:12;98578.63;;;25.26;52.30
63343;BME280;49465;57.664;39.686;2023-07-02T06:24:42;98578.38;;;25.40;51.96
63343;BME280;49465;57.664;39.686;2023-07-02T06:27:14;98580.66;;;25.48;52.18
63343;BME280;49465;57.664;39.686;2023-07-02T06:29:49;98575.22;;;25.43;51.92
63343;BME280;49465;57.664;39.686;2023-07-02T06:32:19;98571.56;;;25.61;51.89
63343;BME280;49465;57.664;39.686;2023-07-02T06:34:48;98578.34;;;25.92;51.45
63343;BME280;49465;57.664;39.686;2023-07-02T06:37:15;98578.69;;;26.13;50.81
63343;BME280;49465;57.664;39.686;2023-07-02T06:39:43;98589.66;;;26.23;50.29
63343;BME280;49465;57.664;39.686;2023-07-02T06:42:12;98591.94;;;26.31;50.12
63343;BME280;49465;57.664;39.686;2023-07-02T06:44:40;98587.22;;;26.55;49.99
63343;BME280;49465;57.664;39.686;2023-07-02T06:47:11;98598.16;;;26.66;49.59
63343;BME280;49465;57.664;39.686;2023-07-02T06:49:37;98597.91;;;26.67;49.20
63343;BME280;49465;57.664;39.686;2023-07-02T06:52:07;98599.13;;;26.76;48.81
63343;BME280;49465;57.664;39.686;2023-07-02T06:54:44;98596.38;;;26.88;48.01
63343;BME280;49465;57.664;39.686;2023-07-02T06:57:21;98603.97;;;27.13;48.71
63343;BME280;49465;57.664;39.686;2023-07-02T06:59:52;98598.03;;;27.11;48.51
63343;BME280;49465;57.664;39.686;2023-07-02T07:02:18;98592.72;;;27.16;48.35
63343;BME280;49465;57.664;39.686;2023-07-02T07:04:51;98602.72;;;27.38;47.93
63343;BME280;49465;57.664;39.686;2023-07-02T07:07:26;98600.69;;;27.28;47.44
63343;BME280;49465;57.664;39.686;2023-07-02T07:09:55;98606.00;;;27.23;47.57
63343;BME280;49465;57.664;39.686;2023-07-02T07:12:33;98609.63;;;27.29;47.88
63343;BME280;49465;57.664;39.686;2023-07-02T07:14:59;98614.78;;;27.18;47.71
63343;BME280;49465;57.664;39.686;2023-07-02T07:17:28;98607.00;;;27.17;47.69
63343;BME280;49465;57.664;39.686;2023-07-02T07:20:04;98608.97;;;27.44;47.66
63343;BME280;49465;57.664;39.686;2023-07-02T07:22:34;98609.09;;;27.32;47.63
63343;BME280;49465;57.664;39.686;2023-07-02T07:25:13;98606.81;;;27.63;46.73
63343;BME280;49465;57.664;39.686;2023-07-02T07:27:42;98605.84;;;27.52;46.73
63343;BME280;49465;57.664;39.686;2023-07-02T07:30:11;98610.63;;;27.45;46.14
63343;BME280;49465;57.664;39.686;2023-07-02T07:32:43;98617.69;;;27.51;46.12
63343;BME280;49465;57.664;39.686;2023-07-02T07:35:21;98617.44;;;27.52;46.77
63343;BME280;49465;57.664;39.686;2023-07-02T07:37:53;98612.91;;;27.36;45.08
63343;BME280;49465;57.664;39.686;2023-07-02T07:40:31;98617.44;;;27.52;45.59
63343;BME280;49465;57.664;39.686;2023-07-02T07:43:02;98613.16;;;27.34;45.89
63343;BME280;49465;57.664;39.686;2023-07-02T07:45:32;98614.88;;;27.23;45.86
63343;BME280;49465;57.664;39.686;2023-07-02T07:48:02;98612.69;;;27.20;45.57
63343;BME280;49465;57.664;39.686;2023-07-02T07:50:31;98616.81;;;27.45;45.63
63343;BME280;49465;57.664;39.686;2023-07-02T07:53:00;98607.28;;;27.20;45.18
63343;BME280;49465;57.664;39.686;2023-07-02T07:55:34;98616.31;;;27.48;44.67
63343;BME280;49465;57.664;39.686;2023-07-02T07:58:01;98606.69;;;27.52;44.69
63343;BME280;49465;57.664;39.686;2023-07-02T08:00:35;98613.81;;;27.41;44.62
63343;BME280;49465;57.664;39.686;2023-07-02T08:03:10;98610.63;;;27.45;44.66
63343;BME280;49465;57.664;39.686;2023-07-02T08:05:39;98612.31;;;27.29;45.15
63343;BME280;49465;57.664;39.686;2023-07-02T08:08:05;98604.34;;;27.39;44.83
63343;BME280;49465;57.664;39.686;2023-07-02T08:10:43;98613.03;;;27.46;44.80
63343;BME280;49465;57.664;39.686;2023-07-02T08:13:14;98617.56;;;27.63;44.34
63343;BME280;49465;57.664;39.686;2023-07-02T08:15:40;98609.41;;;27.57;43.67
63343;BME280;49465;57.664;39.686;2023-07-02T08:18:09;98615.56;;;27.75;43.69
63343;BME280;49465;57.664;39.686;2023-07-02T08:20:38;98602.59;;;27.94;43.06
63343;BME280;49465;57.664;39.686;2023-07-02T08:23:09;98613.00;;;28.07;42.48
63343;BME280;49465;57.664;39.686;2023-07-02T08:25:46;98609.47;;;28.07;41.92
63343;BME280;49465;57.664;39.686;2023-07-02T08:28:27;98619.56;;;27.94;41.48
63343;BME280;49465;57.664;39.686;2023-07-02T08:30:56;98608.47;;;27.69;40.59
63343;BME280;49465;57.664;39.686;2023-07-02T08:33:22;98615.13;;;27.61;40.92
63343;BME280;49465;57.664;39.686;2023-07-02T08:36:01;98610.06;;;27.65;39.74
63343;BME280;49465;57.664;39.686;2023-07-02T08:38:33;98614.28;;;27.83;40.17
63343;BME280;49465;57.664;39.686;2023-07-02T08:41:06;98598.69;;;27.85;40.65
63343;BME280;49465;57.664;39.686;2023-07-02T08:43:41;98603.97;;;27.96;40.44
63343;BME280;49465;57.664;39.686;2023-07-02T08:46:10;98611.34;;;28.06;39.80
63343;BME280;49465;57.664;39.686;2023-07-02T08:48:43;98609.59;;;27.95;38.74
63343;BME280;49465;57.664;39.686;2023-07-02T08:51:14;98618.97;;;28.14;38.98
63343;BME280;49465;57.664;39.686;2023-07-02T08:53:43;98618.56;;;28.28;39.08
63343;BME280;49465;57.664;39.686;2023-07-02T08:56:12;98612.38;;;28.27;38.18
63343;BME280;49465;57.664;39.686;2023-07-02T08:58:46;98619.66;;;28.27;37.46
63343;BME280;49465;57.664;39.686;2023-07-02T09:01:16;98606.88;;;28.17;37.24
63343;BME280;49465;57.664;39.686;2023-07-02T09:03:48;98608.41;;;28.35;37.88
63343;BME280;49465;57.664;39.686;2023-07-02T09:06:20;98617.94;;;28.48;37.28
63343;BME280;49465;57.664;39.686;2023-07-02T09:08:51;98615.94;;;28.60;37.07
63343;BME280;49465;57.664;39.686;2023-07-02T09:11:25;98618.09;;;28.63;37.56
63343;BME280;49465;57.664;39.686;2023-07-02T09:13:58;98619.56;;;28.49;36.68
63343;BME280;49465;57.664;39.686;2023-07-02T09:16:36;98626.72;;;28.60;37.21
63343;BME280;49465;57.664;39.686;2023-07-02T09:19:09;98622.88;;;28.88;38.13
63343;BME280;49465;57.664;39.686;2023-07-02T09:21:48;98620.72;;;28.90;37.52
63343;BME280;49465;57.664;39.686;2023-07-02T09:24:20;98616.56;;;28.77;36.84
63343;BME280;49465;57.664;39.686;2023-07-02T09:26:55;98631.56;;;29.01;37.19
63343;BME280;49465;57.664;39.686;2023-07-02T09:29:32;98622.16;;;29.03;36.68
63343;BME280;49465;57.664;39.686;2023-07-02T09:32:05;98627.78;;;29.39;37.01
63343;BME280;49465;57.664;39.686;2023-07-02T09:34:39;98633.41;;;29.32;36.98
63343;BME280;49465;57.664;39.686;2023-07-02T09:37:14;98624.56;;;29.42;36.80
63343;BME280;49465;57.664;39.686;2023-07-02T09:39:52;98632.91;;;29.35;36.82
63343;BME280;49465;57.664;39.686;2023-07-02T09:42:26;98636.66;;;29.29;36.61
63343;BME280;49465;57.664;39.686;2023-07-02T09:44:58;98640.16;;;29.30;36.56
63343;BME280;49465;57.664;39.686;2023-07-02T09:47:27;98632.97;;;29.08;36.39
63343;BME280;49465;57.664;39.686;2023-07-02T09:50:06;98639.41;;;29.02;37.01
63343;BME280;49465;57.664;39.686;2023-07-02T09:52:41;98635.06;;;28.96;36.18
63343;BME280;49465;57.664;39.686;2023-07-02T09:55:11;98635.00;;;28.86;36.13
63343;BME280;49465;57.664;39.686;2023-07-02T09:57:51;98633.41;;;28.90;36.03
63343;BME280;49465;57.664;39.686;2023-07-02T10:00:24;98632.44;;;28.69;35.82
63343;BME280;49465;57.664;39.686;2023-07-02T10:02:54;98640.75;;;28.62;35.33
63343;BME280;49465;57.664;39.686;2023-07-02T10:05:34;98637.13;;;28.51;34.80
63343;BME280;49465;57.664;39.686;2023-07-02T10:08:14;98636.75;;;28.43;34.48
63343;BME280;49465;57.664;39.686;2023-07-02T10:10:45;98638.78;;;28.52;34.74
63343;BME280;49465;57.664;39.686;2023-07-02T10:13:14;98636.25;;;28.46;34.96
63343;BME280;49465;57.664;39.686;2023-07-02T10:16:00;98637.03;;;28.73;35.60
63343;BME280;49465;57.664;39.686;2023-07-02T10:18:29;98633.69;;;29.36;35.23
63343;BME280;49465;57.664;39.686;2023-07-02T10:21:21;98641.44;;;28.79;35.07
63343;BME280;49465;57.664;39.686;2023-07-02T10:23:56;98636.91;;;28.90;34.75
63343;BME280;49465;57.664;39.686;2023-07-02T10:26:30;98634.06;;;29.07;35.81
63343;BME280;49465;57.664;39.686;2023-07-02T10:29:03;98636.31;;;29.21;34.98
63343;BME280;49465;57.664;39.686;2023-07-02T10:31:32;98638.53;;;29.29;34.42
63343;BME280;49465;57.664;39.686;2023-07-02T10:34:09;98627.88;;;29.54;34.87
63343;BME280;49465;57.664;39.686;2023-07-02T10:36:38;98625.75;;;29.67;34.51
63343;BME280;49465;57.664;39.686;2023-07-02T10:39:16;98643.81;;;29.61;34.49
63343;BME280;49465;57.664;39.686;2023-07-02T10:41:48;98632.50;;;29.64;33.92
63343;BME280;49465;57.664;39.686;2023-07-02T10:44:20;98632.88;;;29.88;33.93
63343;BME280;49465;57.664;39.686;2023-07-02T10:46:48;98644.22;;;29.80;32.98
63343;BME280;49465;57.664;39.686;2023-07-02T10:49:18;98638.31;;;29.99;33.24
63343;BME280;49465;57.664;39.686;2023-07-02T10:52:12;98641.59;;;30.11;33.10
63343;BME280;49465;57.664;39.686;2023-07-02T10:54:47;98639.41;;;30.03;32.94
63343;BME280;49465;57.664;39.686;2023-07-02T10:57:22;98650.25;;;30.18;32.32
63343;BME280;49465;57.664;39.686;2023-07-02T10:59:51;98642.06;;;29.92;31.42
63343;BME280;49465;57.664;39.686;2023-07-02T11:02:23;98654.81;;;30.12;30.99
63343;BME280;49465;57.664;39.686;2023-07-02T11:04:56;98654.53;;;30.04;31.62
63343;BME280;49465;57.664;39.686;2023-07-02T11:07:25;98651.06;;;30.24;32.16
63343;BME280;49465;57.664;39.686;2023-07-02T11:09:58;98651.84;;;30.14;32.41
63343;BME280;49465;57.664;39.686;2023-07-02T11:12:34;98664.25;;;30.00;33.00
63343;BME280;49465;57.664;39.686;2023-07-02T11:15:15;98675.69;;;30.27;32.87
63343;BME280;49465;57.664;39.686;2023-07-02T11:17:42;98665.13;;;30.15;32.62
63343;BME280;49465;57.664;39.686;2023-07-02T11:20:14;98676.13;;;29.93;32.61
63343;BME280;49465;57.664;39.686;2023-07-02T11:22:46;98678.31;;;30.02;32.70
63343;BME280;49465;57.664;39.686;2023-07-02T11:25:19;98680.00;;;29.65;32.75
63343;BME280;49465;57.664;39.686;2023-07-02T11:27:49;98677.56;;;29.58;32.77
63343;BME280;49465;57.664;39.686;2023-07-02T11:30:17;98670.81;;;29.56;32.66
63343;BME280;49465;57.664;39.686;2023-07-02T11:32:55;98676.59;;;29.75;32.69
63343;BME280;49465;57.664;39.686;2023-07-02T11:35:43;98684.56;;;29.54;32.33
63343;BME280;49465;57.664;39.686;2023-07-02T11:38:10;98687.19;;;29.39;32.24
63343;BME280;49465;57.664;39.686;2023-07-02T11:40:37;98685.81;;;29.36;32.64
63343;BME280;49465;57.664;39.686;2023-07-02T11:43:03;98680.81;;;29.61;32.48
63343;BME280;49465;57.664;39.686;2023-07-02T11:45:37;98684.28;;;29.51;32.30
63343;BME280;49465;57.664;39.686;2023-07-02T11:48:04;98678.06;;;29.50;31.87
63343;BME280;49465;57.664;39.686;2023-07-02T11:50:30;98685.31;;;29.45;32.44
63343;BME280;49465;57.664;39.686;2023-07-02T11:52:59;98678.53;;;29.37;32.26
63343;BME280;49465;57.664;39.686;2023-07-02T11:55:30;98685.81;;;29.36;31.70
63343;BME280;49465;57.664;39.686;2023-07-02T11:58:14;98681.25;;;29.42;31.82
63343;BME280;49465;57.664;39.686;2023-07-02T12:00:44;98678.53;;;29.42;31.67
63343;BME280;49465;57.664;39.686;2023-07-02T12:03:16;98681.13;;;29.22;31.81
63343;BME280;49465;57.664;39.686;2023-07-02T12:05:42;98681.81;;;29.44;31.68
63343;BME280;49465;57.664;39.686;2023-07-02T12:08:11;98685.13;;;29.56;31.21
63343;BME280;49465;57.664;39.686;2023-07-02T12:10:43;98686.47;;;29.59;31.32
63343;BME280;49465;57.664;39.686;2023-07-02T12:13:13;98694.06;;;29.62;31.77
63343;BME280;49465;57.664;39.686;2023-07-02T12:15:47;98686.50;;;29.69;31.53
63343;BME280;49465;57.664;39.686;2023-07-02T12:18:19;98688.91;;;29.61;31.83
63343;BME280;49465;57.664;39.686;2023-07-02T12:20:51;98695.38;;;29.54;30.85
63343;BME280;49465;57.664;39.686;2023-07-02T12:23:22;98693.50;;;29.60;30.71
63343;BME280;49465;57.664;39.686;2023-07-02T12:25:58;98691.66;;;29.71;31.03
63343;BME280;49465;57.664;39.686;2023-07-02T12:28:27;98688.06;;;29.55;30.25
63343;BME280;49465;57.664;39.686;2023-07-02T12:30:59;98695.56;;;29.48;30.88
63343;BME280;49465;57.664;39.686;2023-07-02T12:33:34;98701.06;;;29.58;30.88
63343;BME280;49465;57.664;39.686;2023-07-02T12:36:08;98704.97;;;29.40;30.52
63343;BME280;49465;57.664;39.686;2023-07-02T12:38:40;98704.81;;;29.57;30.44
63343;BME280;49465;57.664;39.686;2023-07-02T12:41:15;98710.97;;;29.47;30.76
63343;BME280;49465;57.664;39.686;2023-07-02T12:43:44;98710.84;;;29.27;30.34
63343;BME280;49465;57.664;39.686;2023-07-02T12:46:19;98708.47;;;29.35;30.73
63343;BME280;49465;57.664;39.686;2023-07-02T12:48:57;98709.56;;;29.02;30.63
63343;BME280;49465;57.664;39.686;2023-07-02T12:51:29;98709.59;;;29.07;30.46
63343;BME280;49465;57.664;39.686;2023-07-02T12:54:01;98713.75;;;28.88;30.38
63343;BME280;49465;57.664;39.686;2023-07-02T12:56:30;98707.75;;;28.81;31.32
63343;BME280;49465;57.664;39.686;2023-07-02T12:59:01;98715.28;;;29.11;30.60
63343;BME280;49465;57.664;39.686;2023-07-02T13:01:28;98713.91;;;29.08;31.05
63343;BME280;49465;57.664;39.686;2023-07-02T13:03:59;98722.81;;;29.09;30.88
63343;BME280;49465;57.664;39.686;2023-07-02T13:06:37;98722.50;;;29.37;30.97
63343;BME280;49465;57.664;39.686;2023-07-02T13:09:07;98720.25;;;29.19;30.88
63343;BME280;49465;57.664;39.686;2023-07-02T13:11:33;98724.13;;;29.01;30.45
63343;BME280;49465;57.664;39.686;2023-07-02T13:14:07;98726.03;;;29.06;31.39